createdAt,value
2023-01-11T00:00:32.845Z,3.22
2023-01-11T00:03:34.573Z,3.20
2023-01-11T00:06:36.214Z,3.15
2023-01-11T00:09:37.881Z,3.12
2023-01-11T00:12:39.529Z,3.08
2023-01-11T00:15:41.310Z,3.04
2023-01-11T00:18:43.238Z,3.06
2023-01-11T00:21:44.935Z,3.02
2023-01-11T00:24:46.517Z,2.98
2023-01-11T00:27:49.622Z,2.99
2023-01-11T00:30:51.316Z,2.96
2023-01-11T00:33:53.075Z,2.94
2023-01-11T00:36:54.706Z,2.97
2023-01-11T00:39:56.379Z,3.01
2023-01-11T00:43:17.000Z,3.03
2023-01-11T00:46:47.823Z,3.02
2023-01-11T00:49:49.501Z,3.01
2023-01-11T00:52:51.391Z,2.96
2023-01-11T00:55:53.008Z,2.93
2023-01-11T00:58:54.616Z,2.94
2023-01-11T01:01:56.215Z,2.89
2023-01-11T01:04:58.054Z,2.85
2023-01-11T01:08:00.209Z,2.86
2023-01-11T01:11:02.018Z,2.89
2023-01-11T01:14:22.571Z,2.98
2023-01-11T01:17:25.241Z,2.99
2023-01-11T01:20:27.123Z,2.99
2023-01-11T01:23:29.800Z,3.04
2023-01-11T01:26:31.613Z,3.01
2023-01-11T01:29:33.275Z,3.00
2023-01-11T01:32:34.928Z,3.08
2023-01-11T01:35:38.248Z,3.03
2023-01-11T01:38:40.049Z,3.00
2023-01-11T01:41:41.848Z,2.96
2023-01-11T01:45:26.556Z,2.94
2023-01-11T01:48:28.426Z,2.99
2023-01-11T01:51:43.866Z,2.95
2023-01-11T01:54:48.401Z,2.95
2023-01-11T01:57:51.538Z,2.93
2023-01-11T02:00:53.535Z,2.97
2023-01-11T02:03:55.617Z,2.96
2023-01-11T02:07:02.827Z,2.89
2023-01-11T02:10:04.782Z,2.93
2023-01-11T02:13:10.635Z,2.89
2023-01-11T02:16:12.419Z,2.91
2023-01-11T02:19:31.406Z,2.93
2023-01-11T02:23:10.039Z,2.95
2023-01-11T02:26:33.417Z,2.88
2023-01-11T02:30:03.351Z,2.91
2023-01-11T02:33:42.081Z,2.90
2023-01-11T02:36:54.933Z,2.93
2023-01-11T02:40:06.883Z,2.91
2023-01-11T02:43:36.272Z,2.90
2023-01-11T02:46:58.452Z,2.94
2023-01-11T02:50:10.709Z,2.92
2023-01-11T02:53:33.759Z,2.92
2023-01-11T02:56:42.007Z,2.90
2023-01-11T02:59:49.074Z,2.82
2023-01-11T03:03:13.892Z,2.80
2023-01-11T03:06:43.182Z,2.74
2023-01-11T03:10:05.117Z,2.74
2023-01-11T03:13:30.010Z,2.78
2023-01-11T03:16:48.530Z,2.81
2023-01-11T03:19:55.698Z,2.87
2023-01-11T03:23:10.869Z,2.84
2023-01-11T03:26:29.616Z,2.78
2023-01-11T03:29:47.037Z,2.77
2023-01-11T03:32:54.759Z,2.72
2023-01-11T03:36:38.889Z,2.66
2023-01-11T03:39:56.692Z,2.66
2023-01-11T03:43:13.347Z,2.67
2023-01-11T03:46:38.697Z,2.59
2023-01-11T03:49:53.379Z,2.54
2023-01-11T03:52:57.549Z,2.46
2023-01-11T03:56:00.767Z,2.48
2023-01-11T03:59:03.791Z,2.46
2023-01-11T04:02:14.280Z,2.37
2023-01-11T04:05:16.228Z,2.40
2023-01-11T04:08:17.898Z,2.37
2023-01-11T04:11:19.711Z,2.42
2023-01-11T04:14:21.355Z,2.43
2023-01-11T04:17:23.238Z,2.44
2023-01-11T04:20:25.078Z,2.51
2023-01-11T04:23:27.714Z,2.47
2023-01-11T04:26:30.343Z,2.46
2023-01-11T04:29:32.055Z,2.50
2023-01-11T04:32:33.858Z,2.46
2023-01-11T04:35:35.503Z,2.41
2023-01-11T04:38:37.356Z,2.42
2023-01-11T04:41:58.996Z,2.42
2023-01-11T04:45:00.669Z,2.37
2023-01-11T04:48:02.357Z,2.35
2023-01-11T04:51:04.298Z,2.29
2023-01-11T04:54:06.415Z,2.35
2023-01-11T04:57:13.316Z,2.28
2023-01-11T05:00:16.082Z,2.34
2023-01-11T05:03:17.802Z,2.29
2023-01-11T05:06:24.341Z,2.23
2023-01-11T05:09:27.099Z,2.24
2023-01-11T05:12:28.835Z,2.24
2023-01-11T05:15:30.506Z,2.23
2023-01-11T05:18:32.225Z,2.25
2023-01-11T05:21:36.210Z,2.26
2023-01-11T05:24:37.903Z,2.23
2023-01-11T05:27:39.846Z,2.30
2023-01-11T05:30:41.660Z,2.35
2023-01-11T05:33:43.637Z,2.28
2023-01-11T05:36:45.489Z,2.33
2023-01-11T05:39:48.220Z,2.31
2023-01-11T05:42:49.914Z,2.34
2023-01-11T05:45:51.854Z,2.34
2023-01-11T05:48:55.635Z,2.41
2023-01-11T05:51:58.371Z,2.42
2023-01-11T05:55:00.044Z,2.49
2023-01-11T05:58:01.792Z,2.47
2023-01-11T06:01:03.878Z,2.48
2023-01-11T06:04:05.696Z,2.54
2023-01-11T06:07:09.910Z,2.61
2023-01-11T06:10:11.687Z,2.57
2023-01-11T06:13:29.060Z,2.66
2023-01-11T06:16:30.858Z,2.62
2023-01-11T06:19:32.635Z,2.63
2023-01-11T06:22:34.321Z,2.66
2023-01-11T06:25:37.630Z,2.62
2023-01-11T06:28:40.483Z,2.60
2023-01-11T06:31:42.229Z,2.58
2023-01-11T06:34:43.929Z,2.62
2023-01-11T06:37:45.753Z,2.58
2023-01-11T06:41:01.471Z,2.57
2023-01-11T06:44:03.216Z,2.59
2023-01-11T06:47:05.943Z,2.56
2023-01-11T06:50:08.380Z,2.55
2023-01-11T06:53:10.082Z,2.54
2023-01-11T06:56:16.604Z,2.54
2023-01-11T06:59:18.314Z,2.60
2023-01-11T07:02:20.079Z,2.59
2023-01-11T07:05:22.014Z,2.64
2023-01-11T07:08:27.692Z,2.62
2023-01-11T07:11:31.696Z,2.77
2023-01-11T07:14:34.485Z,2.80
2023-01-11T07:17:36.821Z,2.76
2023-01-11T07:20:38.648Z,2.81
2023-01-11T07:23:40.444Z,2.94
2023-01-11T07:26:42.284Z,2.94
2023-01-11T07:29:44.112Z,2.77
2023-01-11T07:32:45.814Z,2.72
2023-01-11T07:35:49.509Z,2.82
2023-01-11T07:38:51.212Z,2.83
2023-01-11T07:42:12.028Z,2.83
2023-01-11T07:45:15.343Z,2.85
2023-01-11T07:48:25.100Z,2.94
2023-01-11T07:51:27.037Z,2.96
2023-01-11T07:54:28.802Z,2.96
2023-01-11T07:57:30.821Z,2.96
2023-01-11T08:00:33.666Z,2.99
2023-01-11T08:03:35.546Z,3.02
2023-01-11T08:06:37.799Z,3.11
2023-01-11T08:09:39.519Z,3.13
2023-01-11T08:13:04.922Z,3.22
2023-01-11T08:16:06.883Z,3.18
2023-01-11T08:19:08.673Z,3.17
2023-01-11T08:22:10.735Z,3.21
2023-01-11T08:25:13.001Z,3.28
2023-01-11T08:28:14.764Z,3.34
2023-01-11T08:31:17.058Z,3.41
2023-01-11T08:34:18.844Z,3.54
2023-01-11T08:37:20.566Z,3.69
2023-01-11T08:40:25.571Z,4.00
2023-01-11T08:43:28.347Z,4.09
2023-01-11T08:46:30.146Z,4.22
2023-01-11T08:49:31.909Z,4.22
2023-01-11T08:52:33.845Z,4.33
2023-01-11T08:55:35.509Z,4.37
2023-01-11T08:58:37.289Z,4.31
2023-01-11T09:01:39.425Z,4.27
2023-01-11T09:04:42.003Z,4.30
2023-01-11T09:07:43.700Z,4.32
2023-01-11T09:10:45.420Z,4.20
2023-01-11T09:13:47.142Z,4.31
2023-01-11T09:16:48.939Z,4.33
2023-01-11T09:19:50.702Z,4.31
2023-01-11T09:22:53.416Z,4.48
2023-01-11T09:25:55.814Z,4.55
2023-01-11T09:28:58.540Z,4.64
2023-01-11T09:32:00.294Z,4.64
2023-01-11T09:35:03.642Z,4.66
2023-01-11T09:38:05.352Z,4.68
2023-01-11T09:41:23.252Z,4.64
2023-01-11T09:44:27.246Z,4.76
2023-01-11T09:47:33.105Z,4.74
2023-01-11T09:50:41.252Z,4.96
2023-01-11T09:53:50.365Z,4.95
2023-01-11T09:57:10.600Z,4.95
2023-01-11T10:00:35.626Z,5.10
2023-01-11T10:03:59.986Z,5.16
2023-01-11T10:07:38.040Z,5.19
2023-01-11T10:18:31.996Z,5.29
2023-01-11T10:18:42.885Z,5.21
2023-01-11T10:21:53.465Z,5.30
2023-01-11T10:25:05.549Z,5.46
2023-01-11T10:28:20.195Z,5.43
2023-01-11T10:31:44.936Z,5.53
2023-01-11T10:35:05.608Z,5.56
2023-01-11T10:38:34.157Z,5.80
2023-01-11T10:41:45.231Z,5.86
2023-01-11T10:44:55.968Z,5.89
2023-01-11T10:48:05.817Z,5.97
2023-01-11T10:51:25.403Z,5.93
2023-01-11T10:54:33.288Z,6.11
2023-01-11T10:58:01.460Z,6.24
2023-01-11T11:01:24.518Z,6.28
2023-01-11T11:04:26.194Z,6.38
2023-01-11T11:07:38.129Z,6.52
2023-01-11T11:10:56.928Z,6.47
2023-01-11T11:14:07.556Z,6.73
2023-01-11T11:17:26.374Z,6.78
2023-01-11T11:20:32.936Z,6.81
2023-01-11T11:23:35.218Z,6.80
2023-01-11T11:26:45.119Z,6.67
2023-01-11T11:29:52.811Z,6.60
2023-01-11T11:33:06.116Z,6.47
2023-01-11T11:36:14.028Z,6.57
2023-01-11T11:39:32.614Z,6.55
2023-01-11T11:42:35.327Z,6.59
2023-01-11T11:45:37.115Z,6.97
2023-01-11T11:48:38.833Z,7.14
2023-01-11T11:51:42.903Z,7.26
2023-01-11T11:54:56.801Z,7.15
2023-01-11T11:58:08.660Z,7.28
2023-01-11T12:01:29.893Z,7.06
2023-01-11T12:04:48.812Z,7.28
2023-01-11T12:07:55.785Z,7.82
2023-01-11T12:11:05.743Z,7.77
2023-01-11T12:14:39.582Z,7.71
2023-01-11T12:17:41.891Z,7.63
2023-01-11T12:20:44.805Z,7.53
2023-01-11T12:23:47.676Z,7.68
2023-01-11T12:26:55.544Z,7.88
2023-01-11T12:30:10.020Z,7.65
2023-01-11T12:33:33.227Z,7.88
2023-01-11T12:36:51.326Z,7.98
2023-01-11T12:40:11.302Z,7.97
2023-01-11T12:43:27.950Z,8.02
2023-01-11T12:46:43.225Z,7.85
2023-01-11T12:50:06.518Z,7.96
2023-01-11T12:53:17.015Z,7.68
2023-01-11T12:56:21.484Z,7.68
2023-01-11T12:59:52.923Z,7.73
2023-01-11T13:03:22.773Z,7.88
2023-01-11T13:06:37.031Z,7.92
2023-01-11T13:09:56.594Z,7.78
2023-01-11T13:13:24.140Z,7.76
2023-01-11T13:16:42.940Z,7.87
2023-01-11T13:20:06.175Z,7.90
2023-01-11T13:23:19.019Z,7.93
2023-01-11T13:26:21.008Z,7.93
2023-01-11T13:29:39.609Z,7.82
2023-01-11T13:32:46.164Z,7.92
2023-01-11T13:35:51.774Z,7.89
2023-01-11T13:53:03.663Z,8.41
2023-01-11T13:56:15.803Z,8.41
2023-01-11T13:59:26.722Z,7.67
2023-01-11T14:02:46.532Z,7.53
2023-01-11T14:06:13.415Z,7.56
2023-01-11T14:09:26.914Z,7.39
2023-01-11T14:12:53.130Z,7.25
2023-01-11T14:16:05.369Z,7.17
2023-01-11T14:19:13.250Z,7.35
2023-01-11T14:22:45.417Z,7.13
2023-01-11T14:26:02.292Z,6.81
2023-01-11T14:29:29.195Z,6.74
2023-01-11T14:33:01.367Z,6.64
2023-01-11T14:36:11.766Z,6.43
2023-01-11T14:39:32.366Z,6.33
2023-01-11T14:42:35.708Z,6.48
2023-01-11T14:46:16.405Z,6.70
2023-01-11T14:49:39.186Z,6.69
2023-01-11T14:52:43.627Z,6.59
2023-01-11T14:55:45.384Z,6.39
2023-01-11T14:59:04.283Z,6.40
2023-01-11T15:02:05.961Z,6.36
2023-01-11T15:05:08.907Z,6.21
2023-01-11T15:08:13.690Z,6.21
2023-01-11T15:11:31.661Z,6.14
2023-01-11T15:14:33.924Z,5.91
2023-01-11T15:17:54.145Z,5.84
2023-01-11T15:21:06.359Z,5.54
2023-01-11T15:24:22.003Z,5.67
2023-01-11T15:27:35.721Z,5.53
2023-01-11T15:30:39.391Z,5.48
2023-01-11T15:33:49.084Z,5.38
2023-01-11T15:37:08.547Z,5.28
2023-01-11T15:40:40.126Z,5.19
2023-01-11T15:43:54.034Z,5.15
2023-01-11T15:47:01.875Z,5.03
2023-01-11T15:50:18.653Z,4.67
2023-01-11T15:53:20.314Z,4.77
2023-01-11T15:56:37.409Z,4.59
2023-01-11T15:59:45.251Z,3.96
2023-01-11T16:03:16.105Z,3.80
2023-01-11T16:06:35.249Z,4.09
2023-01-11T16:09:52.262Z,3.86
2023-01-11T16:13:03.971Z,4.00
2023-01-11T16:16:29.164Z,3.96
2023-01-11T16:19:39.851Z,3.89
2023-01-11T16:22:41.729Z,4.04
2023-01-11T16:25:43.493Z,3.94
2023-01-11T16:28:58.890Z,3.80
2023-01-11T16:32:18.470Z,3.39
2023-01-11T16:35:25.201Z,3.71
2023-01-11T16:38:28.015Z,3.62
2023-01-11T16:41:38.430Z,3.57
2023-01-11T16:44:46.030Z,3.63
2023-01-11T16:48:02.794Z,3.63
2023-01-11T16:51:08.748Z,3.54
2023-01-11T16:54:16.878Z,3.64
2023-01-11T16:57:18.785Z,3.69
2023-01-11T17:00:35.767Z,3.42
2023-01-11T17:03:47.668Z,3.57
2023-01-11T17:06:49.342Z,3.61
2023-01-11T17:09:51.210Z,3.59
2023-01-11T17:13:49.457Z,3.63
2023-01-11T17:17:00.054Z,2.92
2023-01-11T17:20:02.299Z,2.98
2023-01-11T17:23:05.152Z,3.32
2023-01-11T17:26:14.458Z,3.33
2023-01-11T17:29:40.131Z,3.28
2023-01-11T17:32:46.077Z,2.79
2023-01-11T17:35:48.012Z,2.91
2023-01-11T17:38:49.827Z,3.28
2023-01-11T17:42:10.495Z,3.21
2023-01-11T17:45:21.414Z,3.28
2023-01-11T17:48:23.396Z,3.31
2023-01-11T17:51:27.168Z,3.28
2023-01-11T17:54:30.425Z,3.26
2023-01-11T17:57:32.413Z,3.21
2023-01-11T18:00:34.370Z,3.32
2023-01-11T18:03:51.483Z,3.03
2023-01-11T18:06:56.307Z,2.57
2023-01-11T18:10:01.553Z,2.74
2023-01-11T18:13:04.844Z,2.60
2023-01-11T18:16:06.948Z,2.55
2023-01-11T18:19:32.828Z,2.48
2023-01-11T18:22:37.401Z,2.69
2023-01-11T18:25:40.572Z,2.66
2023-01-11T18:28:43.823Z,2.58
2023-01-11T18:31:45.885Z,2.56
2023-01-11T18:34:51.038Z,2.59
2023-01-11T18:37:53.150Z,2.58
2023-01-11T18:40:56.462Z,2.54
2023-01-11T18:43:58.619Z,2.45
2023-01-11T18:47:02.203Z,2.33
2023-01-11T18:50:04.999Z,2.45
2023-01-11T18:53:09.849Z,2.52
2023-01-11T18:56:11.756Z,2.54
2023-01-11T18:59:14.057Z,2.45
2023-01-11T19:02:21.674Z,2.29
2023-01-11T19:05:23.978Z,2.22
2023-01-11T19:08:25.949Z,2.39
2023-01-11T19:11:30.975Z,2.35
2023-01-11T19:14:33.635Z,2.42
2023-01-11T19:17:35.758Z,2.37
2023-01-11T19:20:37.820Z,2.35
2023-01-11T19:23:40.340Z,2.20
2023-01-11T19:26:42.615Z,2.30
2023-01-11T19:29:44.977Z,1.80
2023-01-11T19:32:54.344Z,2.05
2023-01-11T19:35:56.588Z,2.10
2023-01-11T19:38:59.821Z,2.08
2023-01-11T19:42:03.032Z,1.74
2023-01-11T19:45:06.253Z,1.68
2023-01-11T19:48:08.565Z,1.57
2023-01-11T19:51:12.492Z,1.27
2023-01-11T19:54:17.471Z,1.36
2023-01-11T19:57:20.888Z,1.24
2023-01-11T20:00:23.113Z,1.30
2023-01-11T20:03:25.897Z,1.68
2023-01-11T20:06:27.838Z,1.63
2023-01-11T20:09:29.789Z,1.66
2023-01-11T20:12:31.661Z,1.67
2023-01-11T20:15:33.610Z,1.79
2023-01-11T20:18:37.780Z,1.16
2023-01-11T20:21:40.195Z,1.39
2023-01-11T20:24:43.342Z,1.35
2023-01-11T20:27:45.378Z,1.36
2023-01-11T20:30:47.706Z,1.49
2023-01-11T20:33:52.699Z,1.65
2023-01-11T20:36:54.589Z,1.76
2023-01-11T20:39:56.967Z,1.54
2023-01-11T20:42:59.185Z,1.39
2023-01-11T20:46:01.414Z,1.45
2023-01-11T20:49:04.751Z,1.31
2023-01-11T20:52:06.940Z,1.10
2023-01-11T20:55:09.593Z,1.14
2023-01-11T20:58:11.426Z,1.44
2023-01-11T21:01:13.693Z,1.46
2023-01-11T21:04:16.901Z,1.57
2023-01-11T21:07:18.571Z,1.50
2023-01-11T21:10:20.274Z,1.22
2023-01-11T21:13:22.010Z,1.26
2023-01-11T21:16:25.380Z,1.23
2023-01-11T21:19:27.157Z,1.06
2023-01-11T21:22:29.889Z,1.18
2023-01-11T21:25:33.798Z,0.91
2023-01-11T21:28:35.517Z,0.90
2023-01-11T21:31:38.113Z,0.98
2023-01-11T21:34:39.761Z,0.95
2023-01-11T21:37:41.538Z,1.11
2023-01-11T21:40:43.205Z,1.13
2023-01-11T21:43:45.489Z,1.18
2023-01-11T21:46:47.721Z,1.10
2023-01-11T21:49:49.487Z,0.81
2023-01-11T21:52:54.251Z,0.43
2023-01-11T21:55:56.577Z,0.54
2023-01-11T21:58:58.422Z,0.34
2023-01-11T22:02:00.177Z,0.18
2023-01-11T22:08:55.872Z,0.65
2023-01-11T22:12:09.937Z,0.66
2023-01-11T22:15:11.752Z,0.44
2023-01-11T22:18:15.546Z,0.50
2023-01-11T22:21:26.959Z,0.49
2023-01-11T22:24:30.701Z,0.42
2023-01-11T22:27:33.463Z,0.04
2023-01-11T22:30:51.301Z,0.13
2023-01-11T22:34:13.868Z,0.43
2023-01-11T22:37:21.459Z,0.36
2023-01-11T22:40:29.359Z,0.30
2023-01-11T22:43:32.272Z,0.32
2023-01-11T22:47:04.086Z,0.46
2023-01-11T22:50:19.818Z,0.50
2023-01-11T22:53:21.815Z,0.57
2023-01-11T22:56:26.597Z,0.72
2023-01-11T22:59:38.149Z,0.91
2023-01-11T23:06:40.529Z,0.32
2023-01-11T23:09:52.342Z,0.52
2023-01-11T23:13:13.464Z,0.71
2023-01-11T23:17:07.057Z,0.69
2023-01-11T23:20:12.364Z,0.58
2023-01-11T23:23:15.423Z,0.43
2023-01-11T23:26:22.122Z,0.50
2023-01-11T23:29:32.767Z,0.50
2023-01-11T23:32:49.759Z,0.58
2023-01-11T23:35:59.148Z,0.67
2023-01-11T23:39:10.284Z,0.58
2023-01-11T23:42:27.119Z,0.74
2023-01-11T23:45:37.099Z,0.78
2023-01-11T23:48:51.797Z,0.63
2023-01-11T23:52:06.439Z,0.79
2023-01-11T23:55:15.256Z,0.78
2023-01-11T23:58:39.982Z,0.75
